createdAt,value
2022-08-02T00:01:48.967Z,19.27
2022-08-02T00:04:35.935Z,19.09
2022-08-02T00:07:22.841Z,19.30
2022-08-02T00:10:11.465Z,19.32
2022-08-02T00:12:58.637Z,19.37
2022-08-02T00:15:45.540Z,19.36
2022-08-02T00:18:33.040Z,19.24
2022-08-02T00:21:19.979Z,19.16
2022-08-02T00:24:28.768Z,18.96
2022-08-02T00:27:13.761Z,19.11
2022-08-02T00:30:00.643Z,19.22
2022-08-02T00:32:47.562Z,19.17
2022-08-02T00:35:35.355Z,19.02
2022-08-02T00:38:27.638Z,18.95
2022-08-02T00:41:16.903Z,18.84
2022-08-02T00:44:03.860Z,18.76
2022-08-02T00:46:50.734Z,18.88
2022-08-02T00:49:37.836Z,18.68
2022-08-02T00:52:25.062Z,18.72
2022-08-02T00:55:11.981Z,18.82
2022-08-02T00:58:04.333Z,18.87
2022-08-02T01:00:51.204Z,18.86
2022-08-02T01:03:38.045Z,18.64
2022-08-02T01:06:26.162Z,18.62
2022-08-02T01:09:13.026Z,18.63
2022-08-02T01:12:02.537Z,18.69
2022-08-02T01:14:51.584Z,18.77
2022-08-02T01:17:54.306Z,18.69
2022-08-02T01:20:56.068Z,18.59
2022-08-02T01:24:01.984Z,18.54
2022-08-02T01:27:10.653Z,18.46
2022-08-02T01:30:00.624Z,18.53
2022-08-02T01:32:53.825Z,18.59
2022-08-02T01:35:50.643Z,18.51
2022-08-02T01:38:46.467Z,18.45
2022-08-02T01:41:35.577Z,18.49
2022-08-02T01:44:27.540Z,18.49
2022-08-02T01:47:19.479Z,18.50
2022-08-02T01:50:08.629Z,18.44
2022-08-02T01:52:58.512Z,18.07
2022-08-02T01:55:57.874Z,18.22
2022-08-02T01:58:47.432Z,18.04
2022-08-02T02:01:36.782Z,18.10
2022-08-02T02:04:25.838Z,18.19
2022-08-02T02:07:15.750Z,18.00
2022-08-02T02:10:04.332Z,18.00
2022-08-02T02:12:56.644Z,17.99
2022-08-02T02:15:48.580Z,18.06
2022-08-02T02:18:41.514Z,18.08
2022-08-02T02:21:28.928Z,18.06
2022-08-02T02:24:18.511Z,17.89
2022-08-02T02:27:09.268Z,17.76
2022-08-02T02:29:56.838Z,17.78
2022-08-02T02:32:47.623Z,17.82
2022-08-02T02:35:17.955Z,17.77
2022-08-02T02:37:49.476Z,17.69
2022-08-02T02:40:17.923Z,17.68
2022-08-02T02:42:51.930Z,17.69
2022-08-02T02:45:21.378Z,17.52
2022-08-02T02:47:49.745Z,17.48
2022-08-02T02:50:21.667Z,17.42
2022-08-02T02:52:49.569Z,17.48
2022-08-02T02:55:21.711Z,17.54
2022-08-02T02:57:48.785Z,17.55
2022-08-02T03:00:16.355Z,17.61
2022-08-02T03:02:44.489Z,17.66
2022-08-02T03:05:13.736Z,17.55
2022-08-02T03:07:43.798Z,17.58
2022-08-02T03:10:10.976Z,17.53
2022-08-02T03:12:39.848Z,17.39
2022-08-02T03:15:08.182Z,17.27
2022-08-02T03:17:45.331Z,17.25
2022-08-02T03:20:18.172Z,17.34
2022-08-02T03:22:49.576Z,17.42
2022-08-02T03:25:21.150Z,17.37
2022-08-02T03:27:47.915Z,17.33
2022-08-02T03:30:15.180Z,17.21
2022-08-02T03:32:46.933Z,17.24
2022-08-02T03:35:18.709Z,17.23
2022-08-02T03:37:54.356Z,17.13
2022-08-02T03:40:23.954Z,17.06
2022-08-02T03:42:54.408Z,17.12
2022-08-02T03:45:21.545Z,17.08
2022-08-02T03:47:48.289Z,17.14
2022-08-02T03:50:18.630Z,17.15
2022-08-02T03:52:45.715Z,17.23
2022-08-02T03:55:13.110Z,17.28
2022-08-02T03:57:43.265Z,17.16
2022-08-02T04:00:18.034Z,17.03
2022-08-02T04:02:44.560Z,17.03
2022-08-02T04:05:11.128Z,17.05
2022-08-02T04:08:32.860Z,16.98
2022-08-02T04:10:29.502Z,17.06
2022-08-02T04:12:56.845Z,16.95
2022-08-02T04:15:25.837Z,16.72
2022-08-02T04:17:59.085Z,16.95
2022-08-02T04:20:31.436Z,16.92
2022-08-02T04:23:07.872Z,17.06
2022-08-02T04:25:40.159Z,17.27
2022-08-02T04:28:17.260Z,17.32
2022-08-02T04:30:46.416Z,17.52
2022-08-02T04:33:13.489Z,17.64
2022-08-02T04:35:40.196Z,17.66
2022-08-02T04:38:09.232Z,17.83
2022-08-02T04:40:37.570Z,17.83
2022-08-02T04:43:04.151Z,17.91
2022-08-02T04:45:33.527Z,17.73
2022-08-02T04:48:05.001Z,18.03
2022-08-02T04:50:35.384Z,18.43
2022-08-02T04:53:06.689Z,18.58
2022-08-02T04:55:37.832Z,18.93
2022-08-02T04:58:30.082Z,19.04
2022-08-02T05:00:58.167Z,19.38
2022-08-02T05:03:27.212Z,19.55
2022-08-02T05:06:00.567Z,19.39
2022-08-02T05:08:27.273Z,19.56
2022-08-02T05:10:53.914Z,19.62
2022-08-02T05:13:22.928Z,19.83
2022-08-02T05:15:58.803Z,20.41
2022-08-02T05:18:25.407Z,20.45
2022-08-02T05:20:58.154Z,20.04
2022-08-02T05:23:25.211Z,20.23
2022-08-02T05:25:52.012Z,20.49
2022-08-02T05:28:19.602Z,20.69
2022-08-02T05:30:46.265Z,20.91
2022-08-02T05:33:12.898Z,21.33
2022-08-02T05:35:41.789Z,21.76
2022-08-02T05:38:10.929Z,22.06
2022-08-02T05:40:37.676Z,22.44
2022-08-02T05:43:21.485Z,22.37
2022-08-02T05:45:50.915Z,22.18
2022-08-02T05:48:17.472Z,22.56
2022-08-02T05:50:50.825Z,22.74
2022-08-02T05:53:25.080Z,24.00
2022-08-02T05:58:45.581Z,24.47
2022-08-02T06:01:24.019Z,24.03
2022-08-02T06:03:52.603Z,24.23
2022-08-02T06:06:25.476Z,27.04
2022-08-02T06:08:59.723Z,28.02
2022-08-02T06:11:40.672Z,28.87
2022-08-02T06:14:10.613Z,30.26
2022-08-02T06:16:42.094Z,32.39
2022-08-02T06:19:14.815Z,33.42
2022-08-02T06:22:34.617Z,32.73
2022-08-02T06:24:33.593Z,33.20
2022-08-02T06:27:03.128Z,34.02
2022-08-02T06:29:37.042Z,32.98
2022-08-02T06:32:07.183Z,32.12
2022-08-02T06:34:39.967Z,32.98
2022-08-02T06:37:17.306Z,31.91
2022-08-02T06:39:47.633Z,33.18
2022-08-02T06:42:26.844Z,35.27
2022-08-02T06:44:58.432Z,37.36
2022-08-02T06:47:26.241Z,38.05
2022-08-02T06:49:54.393Z,37.20
2022-08-02T06:52:33.132Z,34.75
2022-08-02T06:55:06.510Z,33.56
2022-08-02T06:57:35.821Z,35.32
2022-08-02T07:00:11.189Z,37.30
2022-08-02T07:02:44.734Z,38.88
2022-08-02T07:05:11.763Z,37.73
2022-08-02T07:07:40.790Z,38.81
2022-08-02T07:10:12.658Z,38.54
2022-08-02T07:12:39.224Z,39.54
2022-08-02T07:15:07.573Z,40.09
2022-08-02T07:17:34.836Z,41.44
2022-08-02T07:20:02.471Z,41.70
2022-08-02T07:22:31.450Z,41.58
2022-08-02T07:25:02.258Z,43.82
2022-08-02T07:27:31.208Z,43.92
2022-08-02T07:29:58.724Z,44.98
2022-08-02T07:32:28.642Z,43.84
2022-08-02T07:34:56.093Z,44.83
2022-08-02T07:37:52.732Z,44.95
2022-08-02T07:40:20.070Z,44.61
2022-08-02T07:42:49.958Z,43.00
2022-08-02T07:45:19.032Z,43.05
2022-08-02T07:47:45.670Z,45.25
2022-08-02T07:50:16.549Z,45.02
2022-08-02T07:52:46.140Z,46.02
2022-08-02T07:55:14.506Z,46.16
2022-08-02T07:57:46.722Z,46.48
2022-08-02T08:00:16.118Z,46.39
2022-08-02T08:02:43.487Z,45.89
2022-08-02T08:05:10.451Z,47.58
2022-08-02T08:07:37.231Z,46.60
2022-08-02T08:10:06.733Z,45.41
2022-08-02T08:12:33.541Z,46.39
2022-08-02T08:15:02.520Z,47.95
2022-08-02T08:17:29.107Z,48.32
2022-08-02T08:19:55.737Z,48.99
2022-08-02T08:22:24.667Z,48.22
2022-08-02T08:24:51.372Z,49.01
2022-08-02T08:27:19.579Z,49.03
2022-08-02T08:29:48.445Z,49.42
2022-08-02T08:32:20.039Z,49.10
2022-08-02T08:34:49.515Z,48.58
2022-08-02T08:37:18.023Z,49.46
2022-08-02T08:39:58.442Z,49.31
2022-08-02T08:42:33.315Z,48.97
2022-08-02T08:45:00.417Z,48.12
2022-08-02T08:47:45.437Z,46.73
2022-08-02T08:50:24.851Z,49.73
2022-08-02T08:53:08.858Z,49.18
2022-08-02T08:55:39.062Z,49.22
2022-08-02T08:58:06.319Z,49.53
2022-08-02T09:00:35.611Z,46.52
2022-08-02T09:03:04.137Z,48.30
2022-08-02T09:05:30.885Z,51.35
2022-08-02T09:07:57.416Z,52.15
2022-08-02T09:10:39.481Z,54.90
2022-08-02T09:13:38.224Z,53.64
2022-08-02T09:16:00.989Z,55.34
2022-08-02T09:18:43.609Z,55.54
2022-08-02T09:21:10.739Z,55.26
2022-08-02T09:23:40.141Z,54.33
2022-08-02T09:26:15.737Z,50.08
2022-08-02T09:28:47.231Z,46.02
2022-08-02T09:31:16.651Z,50.64
2022-08-02T09:33:45.327Z,50.68
2022-08-02T09:36:13.975Z,49.37
2022-08-02T09:38:53.098Z,50.22
2022-08-02T09:41:29.177Z,50.32
2022-08-02T09:44:05.027Z,53.70
2022-08-02T09:46:43.373Z,54.47
2022-08-02T09:49:17.183Z,54.91
2022-08-02T09:51:49.036Z,52.87
2022-08-02T09:54:24.707Z,53.96
2022-08-02T09:56:52.919Z,55.26
2022-08-02T09:59:21.678Z,55.21
2022-08-02T10:01:51.453Z,55.25
2022-08-02T10:04:52.479Z,53.81
2022-08-02T10:07:23.427Z,54.65
2022-08-02T10:09:51.536Z,54.48
2022-08-02T10:12:20.013Z,55.78
2022-08-02T10:14:51.555Z,57.55
2022-08-02T10:17:19.885Z,56.97
2022-08-02T10:20:03.208Z,57.14
2022-08-02T10:22:32.241Z,54.64
2022-08-02T10:24:58.906Z,54.66
2022-08-02T10:27:55.134Z,53.69
2022-08-02T10:30:19.586Z,53.69
2022-08-02T10:32:49.748Z,54.10
2022-08-02T10:35:25.720Z,49.56
2022-08-02T10:38:03.461Z,51.60
2022-08-02T10:40:46.395Z,43.82
2022-08-02T10:43:35.636Z,43.44
2022-08-02T10:46:35.618Z,46.06
2022-08-02T10:49:39.178Z,48.62
2022-08-02T10:52:11.463Z,48.39
2022-08-02T10:54:47.727Z,49.66
2022-08-02T10:57:21.280Z,51.63
2022-08-02T10:59:49.673Z,52.40
2022-08-02T11:02:33.442Z,45.78
2022-08-02T11:05:02.028Z,41.23
2022-08-02T11:07:35.865Z,39.17
2022-08-02T11:10:26.055Z,38.23
2022-08-02T11:12:59.240Z,36.91
2022-08-02T11:15:25.969Z,36.00
2022-08-02T11:18:00.468Z,35.68
2022-08-02T11:20:27.927Z,34.01
2022-08-02T11:23:15.705Z,33.76
2022-08-02T11:26:03.257Z,33.82
2022-08-02T11:28:33.789Z,34.12
2022-08-02T11:31:02.907Z,33.96
2022-08-02T11:33:33.032Z,33.80
2022-08-02T11:36:07.310Z,33.84
2022-08-02T11:38:34.138Z,33.73
2022-08-02T11:41:06.236Z,33.31
2022-08-02T11:43:39.707Z,33.32
2022-08-02T11:46:13.978Z,33.06
2022-08-02T11:48:44.247Z,33.15
2022-08-02T11:51:17.274Z,32.91
2022-08-02T11:53:53.899Z,32.91
2022-08-02T11:56:32.638Z,32.89
2022-08-02T11:59:14.619Z,32.77
2022-08-02T12:01:46.012Z,32.03
2022-08-02T12:04:17.271Z,31.93
2022-08-02T12:06:54.567Z,31.88
2022-08-02T12:09:22.933Z,31.48
2022-08-02T12:11:51.015Z,31.36
2022-08-02T12:14:20.432Z,31.19
2022-08-02T12:17:06.690Z,30.58
2022-08-02T12:19:39.768Z,30.59
2022-08-02T12:22:13.143Z,30.35
2022-08-02T12:24:41.897Z,30.76
2022-08-02T12:27:11.240Z,30.59
2022-08-02T12:29:57.853Z,30.57
2022-08-02T12:32:28.532Z,30.54
2022-08-02T12:35:09.429Z,30.67
2022-08-02T12:37:38.671Z,31.20
2022-08-02T12:40:31.367Z,30.80
2022-08-02T12:43:05.098Z,31.26
2022-08-02T12:45:48.538Z,31.66
2022-08-02T12:48:18.986Z,31.39
2022-08-02T12:50:45.619Z,31.92
2022-08-02T12:53:17.641Z,32.17
2022-08-02T12:56:02.051Z,31.96
2022-08-02T12:58:31.889Z,32.00
2022-08-02T13:01:00.992Z,31.90
2022-08-02T13:04:09.608Z,31.59
2022-08-02T13:06:42.018Z,31.89
2022-08-02T13:09:02.593Z,32.03
2022-08-02T13:11:33.478Z,32.12
2022-08-02T13:14:00.002Z,32.08
2022-08-02T13:16:31.612Z,31.65
2022-08-02T13:18:59.301Z,31.93
2022-08-02T13:21:41.752Z,32.38
2022-08-02T13:24:38.027Z,32.17
2022-08-02T13:27:08.135Z,31.92
2022-08-02T13:29:36.524Z,32.01
2022-08-02T13:32:03.088Z,31.91
2022-08-02T13:34:29.771Z,31.05
2022-08-02T13:36:58.697Z,30.31
2022-08-02T13:39:40.159Z,30.64
2022-08-02T13:42:07.161Z,30.43
2022-08-02T13:44:36.371Z,30.67
2022-08-02T13:47:03.393Z,30.73
2022-08-02T13:49:50.466Z,30.68
2022-08-02T13:52:19.169Z,31.04
2022-08-02T13:54:45.693Z,31.18
2022-08-02T13:57:14.607Z,31.32
2022-08-02T13:59:58.542Z,31.05
2022-08-02T14:02:29.485Z,30.95
2022-08-02T14:04:58.140Z,31.17
2022-08-02T14:07:24.764Z,31.47
2022-08-02T14:09:51.389Z,31.55
2022-08-02T14:12:19.459Z,31.63
2022-08-02T14:14:46.072Z,31.72
2022-08-02T14:17:13.531Z,31.89
2022-08-02T14:19:42.389Z,31.89
2022-08-02T14:22:11.373Z,31.85
2022-08-02T14:24:39.704Z,31.65
2022-08-02T14:27:06.304Z,31.51
2022-08-02T14:29:35.063Z,31.67
2022-08-02T14:32:02.659Z,31.87
2022-08-02T14:34:29.593Z,31.60
2022-08-02T14:36:58.415Z,31.42
2022-08-02T14:39:24.950Z,31.37
2022-08-02T14:41:59.278Z,30.86
2022-08-02T14:44:30.600Z,30.61
2022-08-02T14:46:57.328Z,30.56
2022-08-02T14:49:25.579Z,30.49
2022-08-02T14:51:54.646Z,30.86
2022-08-02T14:54:27.784Z,30.81
2022-08-02T14:57:00.866Z,30.59
2022-08-02T14:59:30.958Z,30.70
2022-08-02T15:01:58.684Z,30.45
2022-08-02T15:04:28.250Z,30.53
2022-08-02T15:07:01.325Z,30.09
2022-08-02T15:09:28.771Z,29.90
2022-08-02T15:11:55.373Z,30.00
2022-08-02T15:14:34.166Z,30.15
2022-08-02T15:17:00.723Z,30.05
2022-08-02T15:19:35.472Z,30.09
2022-08-02T15:22:16.643Z,30.20
2022-08-02T15:24:45.790Z,30.04
2022-08-02T15:27:15.387Z,30.01
2022-08-02T15:29:47.868Z,30.06
2022-08-02T15:32:19.765Z,30.21
2022-08-02T15:34:47.145Z,30.29
2022-08-02T15:37:18.477Z,30.30
2022-08-02T15:39:47.533Z,30.28
2022-08-02T15:42:18.333Z,30.55
2022-08-02T15:44:45.421Z,30.53
2022-08-02T15:47:17.108Z,30.57
2022-08-02T15:49:47.723Z,30.59
2022-08-02T15:52:18.845Z,30.69
2022-08-02T15:54:45.391Z,30.71
2022-08-02T15:57:12.050Z,30.73
2022-08-02T15:59:40.794Z,30.69
2022-08-02T16:02:07.454Z,30.67
2022-08-02T16:04:36.828Z,30.65
2022-08-02T16:07:06.024Z,30.56
2022-08-02T16:09:34.913Z,30.40
2022-08-02T16:12:06.721Z,30.17
2022-08-02T16:14:33.963Z,30.28
2022-08-02T16:17:48.558Z,30.42
2022-08-02T16:20:08.201Z,30.42
2022-08-02T16:22:38.242Z,30.38
2022-08-02T16:25:08.154Z,30.53
2022-08-02T16:27:59.402Z,30.53
2022-08-02T16:30:23.707Z,30.49
2022-08-02T16:32:52.581Z,30.29
2022-08-02T16:35:19.111Z,30.48
2022-08-02T16:37:52.560Z,30.39
2022-08-02T16:40:20.467Z,30.26
2022-08-02T16:42:50.362Z,30.10
2022-08-02T16:45:20.949Z,29.84
2022-08-02T16:47:56.503Z,29.70
2022-08-02T16:50:28.652Z,29.58
2022-08-02T16:52:58.503Z,29.51
2022-08-02T16:55:30.729Z,29.33
2022-08-02T16:58:00.954Z,29.19
2022-08-02T17:00:30.115Z,29.25
2022-08-02T17:03:01.030Z,29.26
2022-08-02T17:05:56.869Z,29.20
2022-08-02T17:08:24.027Z,29.10
2022-08-02T17:11:03.430Z,29.02
2022-08-02T17:13:34.416Z,28.84
2022-08-02T17:16:26.262Z,28.70
2022-08-02T17:18:54.334Z,28.62
2022-08-02T17:21:21.536Z,28.55
2022-08-02T17:24:07.581Z,28.46
2022-08-02T17:26:37.904Z,28.38
2022-08-02T17:29:16.599Z,28.34
2022-08-02T17:32:12.634Z,28.25
2022-08-02T17:34:37.223Z,28.15
2022-08-02T17:37:05.645Z,28.05
2022-08-02T17:39:34.566Z,27.98
2022-08-02T17:42:11.354Z,27.92
2022-08-02T17:44:49.270Z,27.92
2022-08-02T17:47:16.207Z,27.89
2022-08-02T17:49:47.997Z,27.87
2022-08-02T17:52:51.107Z,27.75
2022-08-02T17:55:03.945Z,27.79
2022-08-02T17:57:55.362Z,27.84
2022-08-02T18:00:18.206Z,27.81
2022-08-02T18:02:55.277Z,27.75
2022-08-02T18:05:40.067Z,27.75
2022-08-02T18:08:14.623Z,27.72
2022-08-02T18:10:44.098Z,27.69
2022-08-02T18:13:10.728Z,27.65
2022-08-02T18:15:41.264Z,27.63
2022-08-02T18:18:12.125Z,27.57
2022-08-02T18:20:38.650Z,27.53
2022-08-02T18:23:13.541Z,27.52
2022-08-02T18:25:45.648Z,27.42
2022-08-02T18:28:14.599Z,27.35
2022-08-02T18:30:46.767Z,27.24
2022-08-02T18:33:56.814Z,27.11
2022-08-02T18:36:01.529Z,27.09
2022-08-02T18:38:30.213Z,26.99
2022-08-02T18:40:59.564Z,26.95
2022-08-02T18:43:29.361Z,26.83
2022-08-02T18:46:05.485Z,26.77
2022-08-02T18:48:44.213Z,26.66
2022-08-02T18:51:14.573Z,26.60
2022-08-02T18:53:43.585Z,26.49
2022-08-02T18:56:20.418Z,26.34
2022-08-02T18:58:55.493Z,26.29
2022-08-02T19:01:33.482Z,26.19
2022-08-02T19:04:06.037Z,26.17
2022-08-02T19:06:35.528Z,26.10
2022-08-02T19:09:11.026Z,26.01
2022-08-02T19:11:47.530Z,25.94
2022-08-02T19:14:24.059Z,25.82
2022-08-02T19:16:59.286Z,25.78
2022-08-02T19:19:29.186Z,25.70
2022-08-02T19:22:26.685Z,25.64
2022-08-02T19:24:51.752Z,25.54
2022-08-02T19:27:25.861Z,25.40
2022-08-02T19:29:53.548Z,25.39
2022-08-02T19:32:42.397Z,25.21
2022-08-02T19:35:29.204Z,25.17
2022-08-02T19:38:06.359Z,25.09
2022-08-02T19:40:33.226Z,25.07
2022-08-02T19:44:24.592Z,25.04
2022-08-02T19:45:49.766Z,25.00
2022-08-02T19:48:23.472Z,24.94
2022-08-02T19:50:55.862Z,24.92
2022-08-02T19:53:28.933Z,24.83
2022-08-02T19:55:59.562Z,24.78
2022-08-02T19:58:36.604Z,24.71
2022-08-02T20:01:04.388Z,24.59
2022-08-02T20:03:51.969Z,24.54
2022-08-02T20:06:18.481Z,24.32
2022-08-02T20:08:52.862Z,24.29
2022-08-02T20:11:20.338Z,24.31
2022-08-02T20:13:51.955Z,24.26
2022-08-02T20:16:28.045Z,24.13
2022-08-02T20:18:56.348Z,24.09
2022-08-02T20:21:36.501Z,23.97
2022-08-02T20:24:07.635Z,23.98
2022-08-02T20:26:35.487Z,23.89
2022-08-02T20:29:04.056Z,23.75
2022-08-02T20:31:32.933Z,23.82
2022-08-02T20:33:59.468Z,23.83
2022-08-02T20:36:27.286Z,23.81
2022-08-02T20:38:54.744Z,23.79
2022-08-02T20:41:37.135Z,23.65
2022-08-02T20:44:15.682Z,23.47
2022-08-02T20:46:44.155Z,23.49
2022-08-02T20:49:23.078Z,23.43
2022-08-02T20:51:51.676Z,23.49
2022-08-02T20:54:22.676Z,23.44
2022-08-02T20:59:40.618Z,23.13
2022-08-02T21:02:09.536Z,23.15
2022-08-02T21:05:00.824Z,23.04
2022-08-02T21:07:53.404Z,22.90
2022-08-02T21:10:50.368Z,22.90
2022-08-02T21:13:46.449Z,22.89
2022-08-02T21:16:33.900Z,22.84
2022-08-02T21:19:23.009Z,22.69
2022-08-02T21:22:10.222Z,22.58
2022-08-02T21:25:01.539Z,22.40
2022-08-02T21:27:51.984Z,22.45
2022-08-02T21:30:40.458Z,22.45
2022-08-02T21:33:29.431Z,22.44
2022-08-02T21:36:36.313Z,22.41
2022-08-02T21:39:23.576Z,22.40
2022-08-02T21:42:10.436Z,22.35
2022-08-02T21:45:16.985Z,22.36
2022-08-02T21:48:04.770Z,22.34
2022-08-02T21:50:51.633Z,22.38
2022-08-02T21:53:42.635Z,22.20
2022-08-02T21:56:29.912Z,22.28
2022-08-02T21:59:25.755Z,22.16
2022-08-02T22:02:17.996Z,22.12
2022-08-02T22:05:05.898Z,22.11
2022-08-02T22:08:01.177Z,21.85
2022-08-02T22:11:03.545Z,21.79
2022-08-02T22:13:50.585Z,21.83
2022-08-02T22:16:37.546Z,21.90
2022-08-02T22:19:26.808Z,21.87
2022-08-02T22:22:15.646Z,21.65
2022-08-02T22:25:04.106Z,21.49
2022-08-02T22:28:34.772Z,21.45
2022-08-02T22:31:00.116Z,21.22
2022-08-02T22:34:05.554Z,21.18
2022-08-02T22:36:58.835Z,21.31
2022-08-02T22:40:09.170Z,21.10
2022-08-02T22:42:55.040Z,20.88
2022-08-02T22:45:45.970Z,21.01
2022-08-02T22:48:33.608Z,20.86
2022-08-02T22:51:22.046Z,20.82
2022-08-02T22:54:11.804Z,20.76
2022-08-02T22:56:58.899Z,20.69
2022-08-02T22:58:56.591Z,23.37
2022-08-02T22:59:48.504Z,20.58
2022-08-02T23:02:36.102Z,20.50
2022-08-02T23:05:25.185Z,20.73
2022-08-02T23:08:12.121Z,20.39
